Time;durP1;ratioP1;P1;durP2;ratioP2;P2;SDS_P1;SDS_P2;PMS_P1;PMS_P2;Temp;Humidity;BMP_temperature;BMP_pressure;BME280_temperature;BME280_humidity;BME280_pressure;Samples;Min_cycle;Max_cycle;Signal;HPM_P1;HPM_P2
2023/12/06 00:01:26;;;;;;;13.90;5.55;;;;;;;-5.85;70.86;100536.72;4946803;29;20039;-56
2023/12/06 00:03:52;;;;;;;13.27;4.53;;;;;;;-6.10;70.95;100487.56;4947222;28;20047;-56
2023/12/06 00:06:18;;;;;;;14.82;5.70;;;;;;;-6.00;70.92;100486.31;4935835;29;20061;-58
2023/12/06 00:08:44;;;;;;;16.38;5.45;;;;;;;-6.21;70.82;100477.75;4939893;28;20045;-57
2023/12/06 00:11:09;;;;;;;13.55;5.28;;;;;;;-5.95;70.77;100539.66;4916064;29;20043;-57
2023/12/06 00:13:35;;;;;;;12.23;4.38;;;;;;;-6.02;70.84;100543.59;4936559;29;20065;-60
2023/12/06 00:16:01;;;;;;;12.18;4.70;;;;;;;-6.09;71.26;100547.50;4933268;29;20428;-56
2023/12/06 00:18:27;;;;;;;17.48;5.60;;;;;;;-6.16;71.44;100544.63;4949211;28;20508;-60
2023/12/06 00:20:53;;;;;;;12.30;4.75;;;;;;;-6.21;71.36;100546.06;4948816;29;20794;-58
2023/12/06 00:23:19;;;;;;;14.38;5.07;;;;;;;-6.27;71.42;100550.84;4935983;29;20046;-59
2023/12/06 00:25:45;;;;;;;15.93;5.53;;;;;;;-6.63;71.47;100509.53;4947415;29;20518;-59
2023/12/06 00:28:11;;;;;;;19.00;6.00;;;;;;;-6.69;71.92;100497.47;4947399;28;20035;-57
2023/12/06 00:30:37;;;;;;;15.50;5.70;;;;;;;-6.42;71.70;100548.47;4947487;29;20431;-58
2023/12/06 00:33:04;;;;;;;18.08;6.57;;;;;;;-6.51;72.11;100545.53;4941869;29;20051;-56
2023/12/06 00:35:30;;;;;;;18.42;6.03;;;;;;;-6.47;72.24;100537.28;4939140;29;20168;-54
2023/12/06 00:37:56;;;;;;;15.88;6.00;;;;;;;-6.57;72.33;100551.16;4933721;28;20519;-56
2023/12/06 00:40:22;;;;;;;20.30;5.05;;;;;;;-6.94;72.11;100476.88;4930855;29;20051;-55
2023/12/06 00:42:47;;;;;;;14.55;6.00;;;;;;;-6.81;72.25;100521.31;4926669;28;20514;-55
2023/12/06 00:45:13;;;;;;;13.20;5.50;;;;;;;-6.82;72.51;100512.88;4949751;28;20039;-58
2023/12/06 00:47:39;;;;;;;14.75;5.47;;;;;;;-6.69;72.15;100553.09;4950441;29;20046;-56
2023/12/06 00:50:06;;;;;;;17.48;5.90;;;;;;;-6.67;72.44;100560.75;4942691;29;20047;-58
2023/12/06 00:52:32;;;;;;;16.92;5.97;;;;;;;-6.76;72.60;100557.81;4947612;29;20543;-57
2023/12/06 00:54:58;;;;;;;15.93;5.55;;;;;;;-6.89;72.64;100564.78;4934333;29;20103;-56
2023/12/06 00:57:24;;;;;;;16.92;6.28;;;;;;;-6.79;73.11;100563.56;4920344;29;20074;-58
2023/12/06 00:59:49;;;;;;;16.23;6.45;;;;;;;-6.75;73.33;100562.06;4947980;28;20059;-60
2023/12/06 01:02:15;;;;;;;16.40;5.22;;;;;;;-6.69;73.08;100564.88;4947064;29;20523;-57
2023/12/06 01:04:41;;;;;;;16.02;6.07;;;;;;;-6.79;73.06;100529.81;4935609;29;20082;-59
2023/12/06 01:07:06;;;;;;;15.43;5.93;;;;;;;-6.46;72.67;100569.38;4946053;29;20593;-57
2023/12/06 01:09:32;;;;;;;16.17;6.18;;;;;;;-6.36;72.60;100563.94;4952060;28;20082;-55
2023/12/06 01:11:59;;;;;;;15.68;6.03;;;;;;;-6.49;72.28;100543.94;4919248;29;20043;-55
2023/12/06 01:14:24;;;;;;;20.73;7.07;;;;;;;-6.31;72.72;100567.56;4933626;29;20063;-59
2023/12/06 01:16:50;;;;;;;17.35;6.40;;;;;;;-6.25;72.75;100572.03;4947646;29;20055;-59
2023/12/06 01:19:16;;;;;;;17.77;6.53;;;;;;;-6.25;71.98;100559.38;4956499;28;20074;-58
2023/12/06 01:21:43;;;;;;;17.00;5.47;;;;;;;-6.47;72.05;100562.56;4947208;28;20533;-56
2023/12/06 01:24:09;;;;;;;14.35;5.80;;;;;;;-6.54;71.90;100552.97;4947587;29;20047;-55
2023/12/06 01:26:35;;;;;;;15.50;5.85;;;;;;;-6.79;72.39;100509.59;4947063;29;20045;-58
2023/12/06 01:29:03;;;;;;;15.07;6.50;;;;;;;-6.52;72.31;100554.78;4913615;29;20039;-56
2023/12/06 01:31:29;;;;;;;17.38;6.05;;;;;;;-6.73;71.97;100525.06;4944637;29;20043;-57
2023/12/06 01:33:55;;;;;;;13.75;5.53;;;;;;;-6.87;72.50;100510.13;4935932;29;20081;-57
2023/12/06 01:36:21;;;;;;;17.15;7.28;;;;;;;-6.91;72.48;100502.31;4950076;29;20431;-58
2023/12/06 01:38:48;;;;;;;17.60;5.20;;;;;;;-7.18;72.05;100480.78;4935506;28;20050;-58
2023/12/06 01:41:14;;;;;;;15.45;6.25;;;;;;;-6.76;72.63;100556.13;4938568;29;20047;-59
2023/12/06 01:43:44;;;;;;;14.30;6.10;;;;;;;-6.80;72.49;100549.19;4937807;28;20644;-59
2023/12/06 01:46:10;;;;;;;14.50;6.60;;;;;;;-6.78;72.55;100556.84;4921796;29;20035;-57
2023/12/06 01:48:36;;;;;;;16.30;5.78;;;;;;;-7.08;72.50;100518.31;4920088;29;20040;-59
2023/12/06 01:51:03;;;;;;;14.10;5.72;;;;;;;-6.85;72.44;100558.19;4950150;28;20582;-58
2023/12/06 01:53:30;;;;;;;19.55;6.93;;;;;;;-6.99;72.86;100528.88;4936058;29;20058;-56
2023/12/06 01:55:56;;;;;;;16.23;6.30;;;;;;;-6.68;72.58;100567.47;4938380;29;20101;-56
2023/12/06 01:58:22;;;;;;;19.00;6.03;;;;;;;-6.62;72.95;100567.78;4920619;29;20519;-57
2023/12/06 02:00:48;;;;;;;20.50;5.75;;;;;;;-6.58;72.60;100566.25;4936086;29;20075;-57
2023/12/06 02:03:17;;;;;;;15.00;6.07;;;;;;;-6.58;72.60;100556.13;4933809;29;20182;-57
2023/12/06 02:05:43;;;;;;;19.80;6.97;;;;;;;-6.90;72.31;100506.56;4934872;29;20626;-59
2023/12/06 02:08:09;;;;;;;20.48;6.65;;;;;;;-6.69;71.99;100562.34;4918685;29;20134;-57
2023/12/06 02:10:35;;;;;;;17.25;6.35;;;;;;;-6.91;72.67;100562.97;4936122;29;20134;-58
2023/12/06 02:13:01;;;;;;;14.23;6.00;;;;;;;-7.29;72.41;100526.59;4949976;29;21156;-57
2023/12/06 02:15:27;;;;;;;14.57;5.00;;;;;;;-7.20;72.82;100573.28;4951684;28;20040;-59
2023/12/06 02:17:53;;;;;;;15.75;5.25;;;;;;;-7.39;72.80;100571.50;4915663;29;20040;-56
2023/12/06 02:20:20;;;;;;;17.35;6.13;;;;;;;-7.49;73.06;100575.22;4953707;28;20054;-60
2023/12/06 02:22:48;;;;;;;17.85;6.28;;;;;;;-7.51;73.42;100578.44;4935733;29;20525;-60
2023/12/06 02:25:15;;;;;;;17.90;6.85;;;;;;;-7.60;73.34;100583.88;4919927;29;20039;-57
2023/12/06 02:27:45;;;;;;;20.02;6.60;;;;;;;-8.18;73.37;100497.56;4950083;29;20507;-56
2023/12/06 02:30:12;;;;;;;19.13;6.38;;;;;;;-8.07;73.69;100545.19;4922876;29;20046;-54
2023/12/06 02:32:38;;;;;;;22.30;7.25;;;;;;;-8.25;73.66;100520.72;4949456;29;20039;-54
2023/12/06 02:35:26;;;;;;;21.13;6.65;;;;;;;-7.93;73.64;100590.56;4934206;29;20552;-54
2023/12/06 02:37:56;;;;;;;14.55;6.20;;;;;;;-8.21;74.07;100549.47;4936531;29;20089;-58
2023/12/06 02:40:23;;;;;;;12.65;5.72;;;;;;;-7.88;74.18;100593.31;4948309;28;20187;-56
2023/12/06 02:42:49;;;;;;;15.50;4.80;;;;;;;-7.85;73.96;100593.50;4933299;29;20503;-58
2023/12/06 02:45:15;;;;;;;18.33;6.00;;;;;;;-7.82;73.85;100604.59;4937424;29;20054;-57
2023/12/06 02:47:41;;;;;;;17.15;6.63;;;;;;;-8.01;73.80;100553.97;4915771;29;20083;-57
2023/12/06 02:50:07;;;;;;;17.52;5.88;;;;;;;-7.65;73.83;100597.06;4944453;28;20515;-59
2023/12/06 02:52:33;;;;;;;18.27;5.72;;;;;;;-7.63;73.69;100603.03;4940075;28;20062;-58
2023/12/06 02:54:59;;;;;;;18.33;6.68;;;;;;;-7.65;73.69;100567.63;4949533;29;20039;-58
2023/12/06 02:57:25;;;;;;;19.10;6.38;;;;;;;-7.23;73.58;100600.94;4947757;29;20073;-58
2023/12/06 02:59:51;;;;;;;16.20;6.63;;;;;;;-7.05;73.14;100590.06;4947763;28;20035;-57
2023/12/06 03:02:17;;;;;;;17.00;5.57;;;;;;;-6.94;73.30;100606.66;4949311;29;20054;-54
2023/12/06 03:04:43;;;;;;;19.30;6.05;;;;;;;-6.82;72.96;100600.47;4930972;29;20047;-56
2023/12/06 03:07:09;;;;;;;20.73;5.75;;;;;;;-6.75;72.30;100600.81;4935470;29;20047;-57
2023/12/06 03:09:35;;;;;;;12.50;5.65;;;;;;;-6.68;72.01;100609.59;4936470;29;20519;-59
2023/12/06 03:12:01;;;;;;;18.83;6.85;;;;;;;-6.64;71.43;100603.88;4957559;28;20039;-59
2023/12/06 03:14:27;;;;;;;17.95;5.85;;;;;;;-6.54;71.78;100603.56;4936137;29;20182;-59
2023/12/06 03:16:53;;;;;;;15.85;6.00;;;;;;;-6.71;71.29;100572.41;4933134;29;20053;-56
2023/12/06 03:19:19;;;;;;;16.00;5.93;;;;;;;-6.37;71.45;100624.56;4936548;29;20431;-57
2023/12/06 03:21:45;;;;;;;16.55;5.57;;;;;;;-6.22;71.26;100616.06;4936168;29;20573;-58
2023/12/06 03:24:11;;;;;;;21.55;7.00;;;;;;;-6.13;70.91;100626.63;4932489;29;20098;-59
2023/12/06 03:26:37;;;;;;;20.05;6.15;;;;;;;-6.09;70.32;100620.91;4933265;29;20481;-58
2023/12/06 03:29:03;;;;;;;23.73;6.70;;;;;;;-6.06;70.96;100626.09;4936173;29;20039;-61
2023/12/06 03:31:29;;;;;;;16.73;6.30;;;;;;;-6.03;70.29;100631.31;4907422;29;20573;-59
2023/12/06 03:33:55;;;;;;;19.40;6.88;;;;;;;-6.21;70.52;100596.69;4949396;29;20035;-58
2023/12/06 03:36:21;;;;;;;20.83;6.35;;;;;;;-5.92;70.07;100636.88;4934568;29;20043;-59
2023/12/06 03:38:47;;;;;;;17.50;7.03;;;;;;;-5.87;70.32;100630.38;4934355;29;20097;-60
2023/12/06 03:41:13;;;;;;;14.68;6.80;;;;;;;-5.86;70.17;100613.47;4953884;28;20043;-61
2023/12/06 03:43:39;;;;;;;16.33;6.47;;;;;;;-5.94;70.08;100594.56;4949475;28;20050;-59
2023/12/06 03:46:07;;;;;;;17.60;6.55;;;;;;;-5.82;69.94;100606.09;4947831;28;20488;-60
2023/12/06 03:48:33;;;;;;;17.23;5.85;;;;;;;-5.49;69.84;100647.25;4934052;29;20039;-59
2023/12/06 03:50:59;;;;;;;17.58;7.07;;;;;;;-5.61;69.51;100626.47;4948955;28;20046;-59
2023/12/06 03:53:25;;;;;;;16.00;6.13;;;;;;;-5.56;69.32;100645.25;4932717;29;20080;-59
2023/12/06 03:55:50;;;;;;;18.00;6.40;;;;;;;-5.47;69.62;100650.72;4947457;29;20054;-55
2023/12/06 03:58:17;;;;;;;17.10;6.05;;;;;;;-5.40;69.35;100652.75;4933561;29;20134;-57
2023/12/06 04:00:43;;;;;;;15.85;6.63;;;;;;;-5.34;69.24;100658.06;4933816;28;20039;-59
2023/12/06 04:03:09;;;;;;;17.88;5.95;;;;;;;-5.61;69.09;100602.00;4918462;29;20129;-58
2023/12/06 04:05:35;;;;;;;15.98;6.38;;;;;;;-5.28;69.25;100662.53;4937539;29;20130;-58
2023/12/06 04:08:01;;;;;;;19.88;6.72;;;;;;;-5.29;69.15;100668.44;4947575;29;20133;-62
2023/12/06 04:10:27;;;;;;;20.15;6.40;;;;;;;-5.31;69.45;100668.34;4947638;29;20515;-58
2023/12/06 04:12:53;;;;;;;15.05;6.50;;;;;;;-5.26;68.88;100668.56;4913042;29;20122;-60
2023/12/06 04:15:18;;;;;;;20.67;6.90;;;;;;;-5.27;68.73;100672.75;4920030;29;20035;-58
2023/12/06 04:17:44;;;;;;;18.58;6.38;;;;;;;-5.26;68.45;100676.16;4955196;28;20348;-60
2023/12/06 04:20:11;;;;;;;18.27;6.82;;;;;;;-5.24;68.75;100672.03;4949131;29;20129;-58
2023/12/06 04:22:36;;;;;;;16.85;6.93;;;;;;;-5.22;69.13;100678.88;4945431;28;20043;-59
2023/12/06 04:25:02;;;;;;;16.98;6.07;;;;;;;-5.18;68.91;100675.69;4945101;29;20450;-57
2023/12/06 04:27:29;;;;;;;17.67;6.88;;;;;;;-5.18;68.50;100670.63;4929598;29;20047;-56
2023/12/06 04:29:55;;;;;;;16.20;6.18;;;;;;;-5.15;68.50;100669.91;4946904;29;20054;-57
2023/12/06 04:32:21;;;;;;;18.48;6.13;;;;;;;-5.11;68.27;100671.75;4946257;28;20035;-58
2023/12/06 04:34:51;;;;;;;20.35;8.45;;;;;;;-5.10;68.68;100678.56;4948039;28;20463;-60
2023/12/06 04:37:17;;;;;;;18.95;7.57;;;;;;;-5.08;68.36;100688.78;4929393;29;20058;-60
2023/12/06 04:39:43;;;;;;;14.13;7.53;;;;;;;-5.08;67.98;100684.59;4929335;29;20035;-58
2023/12/06 04:42:09;;;;;;;23.50;8.10;;;;;;;-5.18;68.15;100665.53;4931573;28;20070;-59
2023/12/06 04:44:36;;;;;;;19.48;7.65;;;;;;;-5.00;67.89;100697.59;4949188;29;20047;-59
2023/12/06 04:47:02;;;;;;;18.02;6.85;;;;;;;-5.26;68.26;100650.81;4931123;29;20050;-59
2023/12/06 04:49:28;;;;;;;20.45;7.70;;;;;;;-5.18;68.23;100678.22;4904536;29;20044;-56
2023/12/06 04:51:54;;;;;;;19.33;7.22;;;;;;;-4.94;68.59;100710.53;4932716;29;20071;-56
2023/12/06 04:54:20;;;;;;;19.33;7.45;;;;;;;-4.89;68.29;100712.47;4915364;29;20043;-54
2023/12/06 04:56:46;;;;;;;21.08;8.30;;;;;;;-4.90;68.13;100715.81;4946937;29;20043;-57
2023/12/06 04:59:12;;;;;;;23.15;7.93;;;;;;;-4.92;68.06;100714.84;4946086;29;20598;-64
2023/12/06 05:01:38;;;;;;;16.80;7.28;;;;;;;-4.92;67.45;100719.09;4948205;28;20545;-57
2023/12/06 05:04:04;;;;;;;18.75;6.95;;;;;;;-4.89;67.41;100719.22;4939939;29;20408;-58
2023/12/06 05:06:29;;;;;;;21.25;6.63;;;;;;;-4.85;67.36;100728.69;4950855;28;20043;-61
2023/12/06 05:08:55;;;;;;;17.08;6.53;;;;;;;-5.06;67.64;100697.31;4935043;29;20079;-59
2023/12/06 05:11:21;;;;;;;13.90;6.20;;;;;;;-4.90;67.66;100737.75;4948528;28;20340;-55
2023/12/06 05:13:47;;;;;;;19.10;6.57;;;;;;;-4.87;67.36;100736.25;4938878;29;20045;-53
2023/12/06 05:16:13;;;;;;;19.67;8.15;;;;;;;-4.83;67.56;100743.19;4923190;29;20051;-52
2023/12/06 05:18:39;;;;;;;15.18;6.97;;;;;;;-4.83;67.15;100738.09;4937826;29;20114;-57
2023/12/06 05:21:05;;;;;;;13.57;5.32;;;;;;;-4.85;67.41;100732.09;4935712;29;20456;-54
2023/12/06 05:23:34;;;;;;;16.10;6.55;;;;;;;-5.04;67.07;100716.88;4953768;28;20031;-59
2023/12/06 05:26:01;;;;;;;19.45;6.82;;;;;;;-4.83;67.10;100742.31;4947935;29;20052;-55
2023/12/06 05:28:27;;;;;;;14.95;5.75;;;;;;;-4.89;66.95;100737.84;4918884;29;20635;-53
2023/12/06 05:30:55;;;;;;;16.85;5.68;;;;;;;-5.03;66.87;100705.06;4919415;29;20142;-56
2023/12/06 05:33:27;;;;;;;17.15;5.03;;;;;;;-4.82;66.73;100747.47;4918375;29;20137;-56
2023/12/06 05:35:55;;;;;;;17.65;6.22;;;;;;;-4.85;66.72;100748.97;4952198;28;20039;-56
2023/12/06 05:38:22;;;;;;;16.70;6.28;;;;;;;-4.96;66.45;100734.94;4950480;29;20040;-55
2023/12/06 05:40:48;;;;;;;14.45;6.50;;;;;;;-4.95;66.52;100741.75;4948543;29;20043;-55
2023/12/06 05:43:14;;;;;;;21.50;6.32;;;;;;;-5.17;66.31;100712.03;4950258;28;20046;-57
2023/12/06 05:45:40;;;;;;;14.32;5.75;;;;;;;-4.92;66.45;100749.53;4934423;29;20066;-56
2023/12/06 05:48:06;;;;;;;16.58;6.20;;;;;;;-5.16;66.06;100713.78;4933537;29;20047;-55
2023/12/06 05:50:32;;;;;;;16.15;6.07;;;;;;;-4.93;65.91;100757.91;4947715;29;20073;-56
2023/12/06 05:52:58;;;;;;;18.17;6.32;;;;;;;-4.91;66.26;100751.22;4949026;28;20043;-57
2023/12/06 05:55:24;;;;;;;19.02;7.15;;;;;;;-4.94;66.36;100754.50;4901002;29;20094;-56
2023/12/06 05:57:50;;;;;;;20.27;7.18;;;;;;;-5.03;66.15;100743.09;4948534;29;20463;-56
2023/12/06 06:00:17;;;;;;;23.60;7.63;;;;;;;-4.98;66.09;100754.31;4918212;29;20059;-56
2023/12/06 06:02:43;;;;;;;22.38;7.07;;;;;;;-4.95;65.96;100762.91;4933830;28;20043;-59
2023/12/06 06:05:18;;;;;;;20.17;8.30;;;;;;;-4.93;65.88;100763.88;4931631;29;20094;-55
2023/12/06 06:07:44;;;;;;;34.63;9.25;;;;;;;-4.97;65.84;100759.44;4917039;29;20130;-54
2023/12/06 06:10:10;;;;;;;25.63;8.93;;;;;;;-4.92;65.68;100772.34;4931698;29;20039;-59
2023/12/06 06:12:36;;;;;;;28.95;9.98;;;;;;;-4.90;65.72;100770.72;4949982;29;20039;-55
2023/12/06 06:15:02;;;;;;;24.73;8.15;;;;;;;-4.95;65.59;100779.78;4951183;28;20039;-55
2023/12/06 06:17:30;;;;;;;25.95;9.68;;;;;;;-5.12;65.31;100748.59;4950100;29;20035;-57
2023/12/06 06:19:56;;;;;;;20.83;7.88;;;;;;;-4.86;65.69;100778.53;4951054;28;20054;-57
2023/12/06 06:22:22;;;;;;;21.83;8.82;;;;;;;-4.85;65.78;100792.94;4914520;29;20401;-55
2023/12/06 06:24:48;;;;;;;23.30;9.10;;;;;;;-4.84;65.74;100786.22;4949970;28;20045;-55
2023/12/06 06:27:14;;;;;;;33.08;9.00;;;;;;;-4.81;65.89;100789.75;4934327;29;20043;-57
2023/12/06 06:29:40;;;;;;;26.83;9.30;;;;;;;-5.03;65.26;100759.19;4934439;29;20042;-58
2023/12/06 06:32:10;;;;;;;27.67;9.52;;;;;;;-4.81;65.58;100796.47;4932723;29;20051;-57
2023/12/06 06:34:36;;;;;;;22.52;8.88;;;;;;;-4.80;65.62;100796.56;4946947;28;20511;-55
2023/12/06 06:37:02;;;;;;;26.38;8.98;;;;;;;-4.77;65.33;100796.72;4923341;29;20039;-56
2023/12/06 06:39:28;;;;;;;23.38;9.73;;;;;;;-4.75;64.96;100796.75;4949107;29;20105;-56
2023/12/06 06:41:54;;;;;;;27.90;8.40;;;;;;;-4.74;64.68;100803.56;4950344;29;20046;-55
2023/12/06 06:44:21;;;;;;;25.70;10.88;;;;;;;-5.03;64.41;100755.78;4933703;29;20042;-55
2023/12/06 06:46:46;;;;;;;27.55;9.95;;;;;;;-4.82;64.43;100808.31;4949076;29;20526;-56
2023/12/06 06:49:12;;;;;;;26.25;9.38;;;;;;;-4.83;64.25;100804.03;4950270;28;20046;-53
2023/12/06 06:51:39;;;;;;;20.88;8.30;;;;;;;-5.13;64.42;100772.25;4948796;28;20039;-57
2023/12/06 06:54:09;;;;;;;20.48;8.68;;;;;;;-4.98;63.99;100816.03;4951369;28;20042;-51
2023/12/06 06:56:35;;;;;;;24.60;10.82;;;;;;;-5.55;63.70;100731.44;4950004;28;20051;-53
2023/12/06 06:59:01;;;;;;;25.80;10.07;;;;;;;-5.04;63.99;100814.88;4949389;29;20047;-53
2023/12/06 07:01:30;;;;;;;25.00;8.30;;;;;;;-5.02;63.68;100815.84;4950313;28;20043;-53
2023/12/06 07:04:10;;;;;;;24.45;8.00;;;;;;;-5.10;63.54;100809.53;4920361;28;20051;-52
2023/12/06 07:06:36;;;;;;;19.15;6.78;;;;;;;-5.08;63.61;100815.53;4951062;29;20031;-54
2023/12/06 07:09:04;;;;;;;20.92;8.40;;;;;;;-4.77;63.29;100817.00;4937426;29;20083;-56
2023/12/06 07:11:30;;;;;;;21.83;8.45;;;;;;;-4.52;62.85;100825.69;4951525;28;20039;-53
2023/12/06 07:13:56;;;;;;;22.33;7.80;;;;;;;-4.35;62.39;100819.69;4945877;28;20518;-54
2023/12/06 07:16:22;;;;;;;19.55;6.95;;;;;;;-3.99;61.70;100831.41;4949832;28;20400;-57
2023/12/06 07:18:49;;;;;;;20.27;7.82;;;;;;;-3.79;61.37;100826.28;4936374;28;20054;-55
2023/12/06 07:21:15;;;;;;;21.38;8.23;;;;;;;-3.62;60.80;100820.22;4937791;29;20050;-56
2023/12/06 07:23:40;;;;;;;23.45;8.30;;;;;;;-3.68;60.56;100794.56;4936040;29;20051;-57
2023/12/06 07:26:07;;;;;;;18.52;7.95;;;;;;;-3.50;60.45;100825.78;4935401;29;20081;-57
2023/12/06 07:28:33;;;;;;;18.38;6.28;;;;;;;-3.28;60.16;100825.84;4952144;28;20043;-55
2023/12/06 07:30:59;;;;;;;19.27;7.05;;;;;;;-2.92;59.30;100822.97;4928148;29;20094;-56
2023/12/06 07:33:26;;;;;;;15.20;6.97;;;;;;;-2.73;58.19;100798.28;4936239;29;20416;-54
2023/12/06 07:35:53;;;;;;;21.73;6.55;;;;;;;-2.46;57.79;100784.81;4936979;29;20125;-56
2023/12/06 07:38:20;;;;;;;15.77;6.80;;;;;;;-1.55;57.01;100831.22;4920999;29;20047;-58
2023/12/06 07:40:46;;;;;;;16.30;7.55;;;;;;;-1.23;55.70;100835.66;4933379;29;20043;-56
2023/12/06 07:43:12;;;;;;;14.82;7.13;;;;;;;-1.41;55.55;100832.53;4947932;28;20478;-58
2023/12/06 07:45:37;;;;;;;19.50;7.65;;;;;;;-1.41;55.96;100823.19;4931949;29;20067;-55
2023/12/06 07:48:04;;;;;;;21.30;8.18;;;;;;;-1.04;54.91;100837.97;4916728;29;20050;-58
2023/12/06 07:50:30;;;;;;;16.88;7.32;;;;;;;-0.49;54.18;100835.38;4941348;29;20035;-56
2023/12/06 07:52:55;;;;;;;21.63;8.25;;;;;;;-0.39;53.23;100840.72;4947824;29;20050;-56
2023/12/06 07:55:22;;;;;;;16.60;7.20;;;;;;;-0.69;53.34;100799.88;4933941;29;20123;-59
2023/12/06 07:57:48;;;;;;;16.05;7.28;;;;;;;0.01;53.03;100840.97;4904413;29;20163;-55
2023/12/06 08:00:15;;;;;;;20.83;8.45;;;;;;;0.32;51.76;100838.38;4949315;28;20106;-59
2023/12/06 08:02:42;;;;;;;19.85;8.20;;;;;;;0.72;51.43;100844.50;4920764;29;20070;-57
2023/12/06 08:05:12;;;;;;;18.20;7.50;;;;;;;0.80;51.21;100848.97;4949229;28;20146;-55
2023/12/06 08:07:39;;;;;;;16.70;6.85;;;;;;;0.96;50.70;100847.63;4946422;29;20047;-54
2023/12/06 08:10:12;;;;;;;15.88;7.32;;;;;;;1.01;49.91;100848.59;4934777;28;20045;-58
2023/12/06 08:12:38;;;;;;;19.02;6.97;;;;;;;0.45;50.14;100833.59;4931824;29;20130;-54
2023/12/06 08:15:05;;;;;;;16.73;6.95;;;;;;;0.87;50.18;100865.34;4948939;28;20131;-56
2023/12/06 08:17:32;;;;;;;18.40;6.93;;;;;;;1.49;49.22;100842.81;4904307;29;20047;-58
2023/12/06 08:19:59;;;;;;;17.85;6.78;;;;;;;1.78;48.39;100854.50;4951087;28;20054;-55
2023/12/06 08:22:26;;;;;;;17.55;7.97;;;;;;;1.65;48.11;100797.00;4920992;29;20059;-55
2023/12/06 08:24:57;;;;;;;16.38;7.07;;;;;;;2.31;47.69;100859.78;4930072;29;20040;-54
2023/12/06 08:27:27;;;;;;;19.23;7.53;;;;;;;2.58;46.92;100860.25;4946482;28;20050;-55
2023/12/06 08:29:55;;;;;;;15.35;7.20;;;;;;;2.16;47.07;100865.50;4945914;28;20038;-57
2023/12/06 08:32:22;;;;;;;18.65;6.28;;;;;;;1.77;46.71;100857.91;4923094;29;20151;-55
2023/12/06 08:34:48;;;;;;;18.42;7.45;;;;;;;1.60;46.71;100861.84;4948612;28;20597;-55
2023/12/06 08:37:15;;;;;;;16.42;7.18;;;;;;;1.35;46.67;100824.59;4936010;29;20039;-56
2023/12/06 08:39:40;;;;;;;16.60;6.90;;;;;;;1.34;46.92;100863.84;4936942;29;20694;-57
2023/12/06 08:42:08;;;;;;;15.18;7.50;;;;;;;0.65;47.05;100861.41;4951956;28;20057;-57
2023/12/06 08:44:34;;;;;;;14.57;6.90;;;;;;;-0.15;47.52;100810.72;4941154;29;20115;-57
2023/12/06 08:47:00;;;;;;;17.33;6.93;;;;;;;-0.28;48.07;100875.97;4937271;29;20145;-59
2023/12/06 08:49:26;;;;;;;20.42;7.63;;;;;;;-0.91;48.93;100834.09;4940533;29;20039;-57
2023/12/06 08:51:51;;;;;;;18.90;7.43;;;;;;;-0.99;49.35;100866.16;4942183;29;20054;-57
2023/12/06 08:54:17;;;;;;;18.27;8.07;;;;;;;-1.21;50.02;100867.22;4935181;29;20054;-57
2023/12/06 08:56:43;;;;;;;21.73;8.50;;;;;;;-1.30;49.94;100866.91;4920983;29;20511;-57
2023/12/06 08:59:09;;;;;;;14.93;6.10;;;;;;;-1.92;49.94;100779.03;4938547;29;20050;-56
2023/12/06 09:01:35;;;;;;;17.63;6.97;;;;;;;-1.67;50.39;100856.34;4952656;28;20105;-58
2023/12/06 09:04:02;;;;;;;16.05;7.13;;;;;;;-1.75;50.61;100864.59;4923093;29;20058;-54
2023/12/06 09:06:28;;;;;;;18.20;7.28;;;;;;;-1.88;50.92;100856.44;4942911;29;20106;-58
2023/12/06 09:08:54;;;;;;;16.50;6.15;;;;;;;-1.94;51.44;100854.59;4922442;29;20035;-58
2023/12/06 09:11:24;;;;;;;17.98;7.28;;;;;;;-1.92;51.73;100855.47;4954913;28;20062;-56
2023/12/06 09:13:51;;;;;;;16.40;6.18;;;;;;;-2.04;51.90;100837.22;4919545;29;20563;-57
2023/12/06 09:16:17;;;;;;;18.40;6.90;;;;;;;-1.88;52.05;100864.09;4948537;28;20126;-55
2023/12/06 09:18:43;;;;;;;17.45;7.70;;;;;;;-1.96;52.14;100866.41;4936207;29;20051;-57
2023/12/06 09:21:09;;;;;;;20.08;7.47;;;;;;;-2.11;52.20;100865.00;4951008;28;20050;-59
2023/12/06 09:23:35;;;;;;;17.63;7.07;;;;;;;-2.31;52.10;100856.66;4939881;29;20039;-57
2023/12/06 09:26:01;;;;;;;17.33;7.13;;;;;;;-2.42;53.06;100870.66;4937973;29;20039;-55
2023/12/06 09:28:26;;;;;;;18.30;6.72;;;;;;;-2.49;52.93;100871.25;4949800;29;20039;-57
2023/12/06 09:30:53;;;;;;;20.10;8.00;;;;;;;-2.56;52.91;100863.38;4934768;29;20053;-57
2023/12/06 09:33:19;;;;;;;17.52;6.68;;;;;;;-2.57;53.12;100864.22;4917051;29;20035;-58
2023/12/06 09:35:45;;;;;;;17.77;7.40;;;;;;;-2.80;53.42;100826.84;4950816;29;20043;-56
2023/12/06 09:38:12;;;;;;;26.70;8.52;;;;;;;-2.60;53.15;100866.63;4951379;28;20098;-56
2023/12/06 09:40:38;;;;;;;26.35;10.27;;;;;;;-2.76;53.40;100831.22;4952073;29;20510;-56
2023/12/06 09:43:08;;;;;;;19.92;7.80;;;;;;;-2.76;53.49;100825.28;4951184;28;20042;-55
2023/12/06 09:45:35;;;;;;;18.38;6.93;;;;;;;-2.47;53.60;100860.31;4949158;29;20043;-58
2023/12/06 09:48:00;;;;;;;20.70;7.55;;;;;;;-2.59;53.54;100832.72;4935254;28;20134;-57
2023/12/06 09:50:26;;;;;;;23.25;8.50;;;;;;;-2.34;53.71;100865.03;4936315;29;20069;-56
2023/12/06 09:52:53;;;;;;;19.42;9.13;;;;;;;-2.38;53.56;100868.28;4938047;29;20135;-54
2023/12/06 09:55:23;;;;;;;20.05;8.50;;;;;;;-2.39;53.66;100863.13;4935054;29;20550;-56
2023/12/06 09:57:49;;;;;;;;;;;;;;;-2.38;53.61;100858.09;4948864;29;20050;-56
2023/12/06 10:00:15;;;;;;;18.85;6.80;;;;;;;-2.47;53.72;100873.06;4932626;29;19927;-56
2023/12/06 10:02:57;;;;;;;23.58;6.30;;;;;;;-2.50;53.78;100865.28;4918986;29;20074;-56
2023/12/06 10:05:24;;;;;;;17.85;6.95;;;;;;;-2.81;53.97;100821.69;4901477;29;20046;-56
2023/12/06 10:07:50;;;;;;;15.55;6.57;;;;;;;-2.38;53.86;100870.84;4933384;29;20082;-59
2023/12/06 10:10:16;;;;;;;16.63;6.95;;;;;;;-2.28;53.36;100869.47;4950003;29;20112;-58
2023/12/06 10:12:55;;;;;;;17.73;7.55;;;;;;;-2.14;53.28;100858.97;4934014;29;20052;-57
2023/12/06 10:15:22;;;;;;;18.17;7.10;;;;;;;-2.03;53.32;100871.22;4932990;29;20044;-54
2023/12/06 10:17:48;;;;;;;17.35;7.20;;;;;;;-2.03;53.23;100859.34;4949442;29;20046;-58
2023/12/06 10:20:15;;;;;;;21.13;7.60;;;;;;;-1.97;53.32;100863.78;4949860;29;20058;-57
2023/12/06 10:22:41;;;;;;;15.10;6.32;;;;;;;-2.02;53.38;100870.41;4934842;29;20799;-55
2023/12/06 10:25:11;;;;;;;18.92;7.82;;;;;;;-2.29;53.25;100838.03;4949805;29;20403;-54
2023/12/06 10:27:37;;;;;;;18.60;6.55;;;;;;;-2.22;53.27;100873.13;4949778;29;20039;-56
2023/12/06 10:30:08;;;;;;;18.27;7.18;;;;;;;-2.28;53.13;100878.00;4948468;29;20055;-56
2023/12/06 10:32:34;;;;;;;25.83;7.22;;;;;;;-2.48;53.39;100870.44;4915403;29;20382;-58
2023/12/06 10:35:03;;;;;;;17.85;7.53;;;;;;;-2.65;53.85;100872.34;4946390;29;20043;-55
2023/12/06 10:37:31;;;;;;;18.08;7.78;;;;;;;-2.72;53.70;100873.78;4932954;29;20049;-57
2023/12/06 10:40:09;;;;;;;24.30;8.07;;;;;;;-2.90;53.83;100837.50;4934703;29;20035;-56
2023/12/06 10:42:36;;;;;;;14.43;6.97;;;;;;;-2.78;53.71;100881.22;4932596;28;20039;-59
2023/12/06 10:45:03;;;;;;;26.38;8.27;;;;;;;-3.00;53.74;100869.34;4950244;29;20058;-59
2023/12/06 10:47:31;;;;;;;19.38;7.38;;;;;;;-3.07;53.97;100880.09;4931943;29;20047;-58
2023/12/06 10:49:59;;;;;;;19.90;7.82;;;;;;;-3.08;54.26;100883.44;4935225;29;20039;-57
2023/12/06 10:52:29;;;;;;;21.52;7.85;;;;;;;-3.02;54.31;100887.88;4917543;28;20043;-58
2023/12/06 10:54:56;;;;;;;22.75;8.20;;;;;;;-3.02;54.51;100892.97;4899979;29;20153;-55
2023/12/06 10:57:24;;;;;;;18.52;6.82;;;;;;;-3.08;54.75;100880.88;4915002;29;20576;-61
2023/12/06 10:59:50;;;;;;;21.70;7.13;;;;;;;-3.10;54.90;100881.66;4931680;29;20043;-57
2023/12/06 11:02:16;;;;;;;19.55;7.53;;;;;;;-3.16;54.76;100879.72;4929839;29;20054;-54
2023/12/06 11:04:47;;;;;;;21.63;7.95;;;;;;;-2.79;55.08;100893.88;4948965;28;20051;-55
2023/12/06 11:07:41;;;;;;;17.65;7.25;;;;;;;-2.49;54.31;100886.53;4932254;29;20141;-51
2023/12/06 11:10:13;;;;;;;30.38;7.05;;;;;;;-2.70;54.11;100887.47;4928267;29;20051;-60
2023/12/06 11:13:31;;;;;;;18.45;7.82;;;;;;;-2.91;54.67;100890.84;4948751;29;20130;-56
2023/12/06 11:16:07;;;;;;;19.38;7.45;;;;;;;-2.95;54.66;100892.41;4886543;29;20056;-59